Time;durP1;ratioP1;P1;durP2;ratioP2;P2;SDS_P1;SDS_P2;PMS_P1;PMS_P2;Temp;Humidity;BMP_temperature;BMP_pressure;BME280_temperature;BME280_humidity;BME280_pressure;Samples;Min_cycle;Max_cycle;Signal;HPM_P1;HPM_P2
2022/08/10 00:01:37;;;;;;;;;;;20.30;48.00;;;;;;5141830;27;20347;-46
2022/08/10 00:04:03;;;;;;;;;;;20.30;47.70;;;;;;5142631;27;20492;-52
2022/08/10 00:06:29;;;;;;;;;;;20.00;47.70;;;;;;5147107;27;20033;-45
2022/08/10 00:08:54;;;;;;;;;;;19.80;47.60;;;;;;5141261;27;19923;-48
2022/08/10 00:11:20;;;;;;;;;;;20.40;49.50;;;;;;5147174;27;20287;-46
2022/08/10 00:13:46;;;;;;;;;;;21.50;47.80;;;;;;5141232;27;19931;-46
2022/08/10 00:16:12;;;;;;;;;;;21.40;47.00;;;;;;5140207;27;20313;-45
2022/08/10 00:18:38;;;;;;;;;;;20.80;47.70;;;;;;5146494;27;20096;-45
2022/08/10 00:21:04;;;;;;;;;;;20.10;48.40;;;;;;5141654;27;19935;-45
2022/08/10 00:23:30;;;;;;;;;;;20.10;48.00;;;;;;5141513;27;20378;-44
2022/08/10 00:25:56;;;;;;;;;;;20.00;47.70;;;;;;5146962;27;19986;-45
2022/08/10 00:28:21;;;;;;;;;;;20.20;49.80;;;;;;5141514;27;19927;-45
2022/08/10 00:30:47;;;;;;;;;;;21.30;48.40;;;;;;5147304;27;20303;-46
2022/08/10 00:33:13;;;;;;;;;;;21.70;46.70;;;;;;5140441;27;19937;-46
2022/08/10 00:35:39;;;;;;;;;;;20.90;47.70;;;;;;5140624;27;19922;-45
2022/08/10 00:38:04;;;;;;;;;;;20.30;48.10;;;;;;5146682;27;20366;-47
2022/08/10 00:40:30;;;;;;;;;;;20.10;48.10;;;;;;5141544;27;19923;-44
2022/08/10 00:42:56;;;;;;;;;;;20.00;47.80;;;;;;5141556;27;20301;-47
2022/08/10 00:45:22;;;;;;;;;;;19.70;48.10;;;;;;5146645;27;19971;-47
2022/08/10 00:47:48;;;;;;;;;;;20.30;49.80;;;;;;5141288;27;19934;-46
2022/08/10 00:50:16;;;;;;;;;;;21.30;48.40;;;;;;5146565;27;19927;-46
2022/08/10 00:52:42;;;;;;;;;;;21.60;47.00;;;;;;5139962;27;20350;-44
2022/08/10 00:55:08;;;;;;;;;;;20.60;48.20;;;;;;5140784;27;19931;-45
2022/08/10 00:57:34;;;;;;;;;;;20.30;48.30;;;;;;5146447;27;19935;-45
2022/08/10 01:00:00;;;;;;;;;;;20.00;48.40;;;;;;5143638;27;19931;-46
2022/08/10 01:02:29;;;;;;;;;;;20.00;47.70;;;;;;5145455;27;19957;-47
2022/08/10 01:04:55;;;;;;;;;;;19.90;49.00;;;;;;5150496;27;20006;-45
2022/08/10 01:07:29;;;;;;;;;;;21.00;49.10;;;;;;5145157;27;19939;-46
2022/08/10 01:10:04;;;;;;;;;;;21.90;47.00;;;;;;5144273;27;19923;-45
2022/08/10 01:12:32;;;;;;;;;;;20.90;47.70;;;;;;5149560;27;20334;-45
2022/08/10 01:15:13;;;;;;;;;;;20.30;48.20;;;;;;5144715;27;19923;-46
2022/08/10 01:17:42;;;;;;;;;;;20.10;48.20;;;;;;5144988;27;19926;-48
2022/08/10 01:20:11;;;;;;;;;;;19.80;47.80;;;;;;5132018;27;19935;-47
2022/08/10 01:22:37;;;;;;;;;;;19.80;49.90;;;;;;5126228;27;20370;-47
2022/08/10 01:25:10;;;;;;;;;;;20.90;49.40;;;;;;5150260;27;19938;-45
2022/08/10 01:27:40;;;;;;;;;;;21.80;46.90;;;;;;5126494;27;20571;-46
2022/08/10 01:30:05;;;;;;;;;;;20.90;47.80;;;;;;5143498;27;19927;-47
2022/08/10 01:32:43;;;;;;;;;;;20.50;48.00;;;;;;5149639;27;19934;-48
2022/08/10 01:35:14;;;;;;;;;;;20.20;48.00;;;;;;5140775;27;19999;-46
2022/08/10 01:37:51;;;;;;;;;;;20.00;47.90;;;;;;5126186;27;20028;-46
2022/08/10 01:40:16;;;;;;;;;;;19.80;47.60;;;;;;5149732;27;19929;-47
2022/08/10 01:42:42;;;;;;;;;;;20.50;50.10;;;;;;5144568;27;20371;-45
2022/08/10 01:45:08;;;;;;;;;;;21.60;47.80;;;;;;5144366;27;19949;-45
2022/08/10 01:50:21;;;;;;;;;;;20.50;48.30;;;;;;5128103;27;20354;-45
2022/08/10 01:52:47;;;;;;;;;;;20.10;48.50;;;;;;5118102;27;20445;-45
2022/08/10 01:55:13;;;;;;;;;;;20.00;48.10;;;;;;5116763;27;19923;-45
2022/08/10 01:57:39;;;;;;;;;;;19.90;47.90;;;;;;5144007;27;20009;-51
2022/08/10 02:00:05;;;;;;;;;;;20.30;50.20;;;;;;5147235;27;19930;-53
2022/08/10 02:02:32;;;;;;;;;;;21.40;48.60;;;;;;5146957;27;19923;-45
2022/08/10 02:04:57;;;;;;;;;;;21.60;47.10;;;;;;5124450;27;19925;-47
2022/08/10 02:07:24;;;;;;;;;;;20.60;48.30;;;;;;5129751;27;20290;-44
2022/08/10 02:09:54;;;;;;;;;;;20.30;48.20;;;;;;5125174;27;20009;-45
2022/08/10 02:12:23;;;;;;;;;;;20.00;48.30;;;;;;5124547;27;20026;-45
2022/08/10 02:14:54;;;;;;;;;;;19.90;47.90;;;;;;5149325;27;19923;-46
2022/08/10 02:17:27;;;;;;;;;;;20.40;50.10;;;;;;5143654;27;20193;-46
2022/08/10 02:19:53;;;;;;;;;;;21.40;48.40;;;;;;5125078;27;20498;-45
2022/08/10 02:22:19;;;;;;;;;;;21.30;47.80;;;;;;5148652;27;19969;-47
2022/08/10 02:24:45;;;;;;;;;;;20.40;48.70;;;;;;5142353;27;19958;-45
2022/08/10 02:27:11;;;;;;;;;;;20.20;48.60;;;;;;5146398;27;20293;-52
2022/08/10 02:29:36;;;;;;;;;;;19.90;48.50;;;;;;5127562;27;19923;-45
2022/08/10 02:32:03;;;;;;;;;;;20.00;48.90;;;;;;5143588;27;19971;-46
2022/08/10 02:34:28;;;;;;;;;;;20.80;49.90;;;;;;5115511;27;19924;-45
2022/08/10 02:36:54;;;;;;;;;;;21.80;47.60;;;;;;5124844;27;19938;-45
2022/08/10 02:39:20;;;;;;;;;;;21.00;48.20;;;;;;5143410;27;19934;-45
2022/08/10 02:41:52;;;;;;;;;;;20.50;48.60;;;;;;5123054;27;19923;-46
2022/08/10 02:44:20;;;;;;;;;;;20.20;48.50;;;;;;5142234;27;19930;-44
2022/08/10 02:46:47;;;;;;;;;;;19.90;48.30;;;;;;5142695;27;19923;-46
2022/08/10 02:49:16;;;;;;;;;;;19.80;48.20;;;;;;5130035;27;20021;-46
2022/08/10 02:51:46;;;;;;;;;;;20.30;50.60;;;;;;5124765;27;19927;-46
2022/08/10 02:54:17;;;;;;;;;;;21.40;48.80;;;;;;5147934;27;19930;-51
2022/08/10 02:56:48;;;;;;;;;;;21.40;47.90;;;;;;5127165;27;20267;-48
2022/08/10 02:59:15;;;;;;;;;;;20.50;48.70;;;;;;5142557;27;19973;-48
2022/08/10 03:01:42;;;;;;;;;;;20.20;48.70;;;;;;5128534;27;19929;-45
2022/08/10 03:04:10;;;;;;;;;;;19.90;48.50;;;;;;5142331;27;19933;-46
2022/08/10 03:06:37;;;;;;;;;;;19.50;48.80;;;;;;5124245;27;19927;-46
2022/08/10 03:09:05;;;;;;;;;;;20.60;50.70;;;;;;5148229;27;19995;-46
2022/08/10 03:11:30;;;;;;;;;;;21.70;48.40;;;;;;5142521;27;19938;-46
2022/08/10 03:13:56;;;;;;;;;;;21.10;48.50;;;;;;5123962;27;20014;-49
2022/08/10 03:16:22;;;;;;;;;;;20.30;49.10;;;;;;5129580;27;20370;-48
2022/08/10 03:18:48;;;;;;;;;;;20.20;48.50;;;;;;5122910;27;19930;-46
2022/08/10 03:21:14;;;;;;;;;;;19.90;48.60;;;;;;5128649;27;19937;-46
2022/08/10 03:23:40;;;;;;;;;;;19.90;48.00;;;;;;5141940;27;19962;-46
2022/08/10 03:26:06;;;;;;;;;;;20.30;50.80;;;;;;5123874;27;20025;-47
2022/08/10 03:28:31;;;;;;;;;;;21.30;49.40;;;;;;5127051;27;19927;-47
2022/08/10 03:30:58;;;;;;;;;;;21.50;48.00;;;;;;5123580;27;20267;-46
2022/08/10 03:33:25;;;;;;;;;;;20.60;48.90;;;;;;5123690;27;20040;-47
2022/08/10 03:35:50;;;;;;;;;;;20.10;49.00;;;;;;5147343;27;19923;-47
2022/08/10 03:38:16;;;;;;;;;;;19.90;48.70;;;;;;5122287;27;20019;-46
2022/08/10 03:40:42;;;;;;;;;;;19.80;48.40;;;;;;5145383;27;20366;-54
2022/08/10 03:43:08;;;;;;;;;;;19.90;47.70;;;;;;5143812;27;19923;-45
2022/08/10 03:45:33;;;;;;;;;;;20.40;50.90;;;;;;5123784;27;20198;-45
2022/08/10 03:47:59;;;;;;;;;;;21.30;49.40;;;;;;5147528;27;19931;-46
2022/08/10 03:50:25;;;;;;;;;;;21.50;48.20;;;;;;5123665;27;19923;-48
2022/08/10 03:52:51;;;;;;;;;;;20.60;48.90;;;;;;5119463;27;19924;-44
2022/08/10 03:55:17;;;;;;;;;;;20.00;49.20;;;;;;5123043;27;19931;-45
2022/08/10 03:57:43;;;;;;;;;;;19.90;48.90;;;;;;5122565;27;19975;-45
2022/08/10 04:00:09;;;;;;;;;;;20.00;49.90;;;;;;5143058;27;20308;-52
2022/08/10 04:02:35;;;;;;;;;;;20.80;50.50;;;;;;5146289;27;19926;-48
2022/08/10 04:05:01;;;;;;;;;;;21.80;48.30;;;;;;5123613;27;19934;-47
2022/08/10 04:07:27;;;;;;;;;;;20.80;48.90;;;;;;5146987;27;19931;-46
2022/08/10 04:09:53;;;;;;;;;;;20.30;48.90;;;;;;5123259;27;19923;-45
2022/08/10 04:12:19;;;;;;;;;;;20.00;48.80;;;;;;5141554;27;19938;-48
2022/08/10 04:14:44;;;;;;;;;;;19.80;48.50;;;;;;5145591;27;19927;-46
2022/08/10 04:17:10;;;;;;;;;;;20.50;51.00;;;;;;5141179;27;19972;-46
2022/08/10 04:19:45;;;;;;;;;;;21.60;49.10;;;;;;5141489;27;20009;-46
2022/08/10 04:22:15;;;;;;;;;;;21.30;48.60;;;;;;5147303;27;19923;-46
2022/08/10 04:24:41;;;;;;;;;;;20.40;49.00;;;;;;5117188;27;19928;-45
2022/08/10 04:27:07;;;;;;;;;;;20.20;48.80;;;;;;5146305;27;19935;-52
2022/08/10 04:29:33;;;;;;;;;;;19.80;48.90;;;;;;5123867;27;19927;-48
2022/08/10 04:31:59;;;;;;;;;;;19.50;48.70;;;;;;5116308;27;19923;-47
2022/08/10 04:34:25;;;;;;;;;;;20.30;51.20;;;;;;5147539;27;19930;-46
2022/08/10 04:36:51;;;;;;;;;;;21.40;49.60;;;;;;5110087;27;20025;-46
2022/08/10 04:39:17;;;;;;;;;;;21.50;48.30;;;;;;5145705;27;20331;-46
2022/08/10 04:41:42;;;;;;;;;;;20.40;49.40;;;;;;5132883;27;19927;-47
2022/08/10 04:44:08;;;;;;;;;;;20.30;49.00;;;;;;5120176;27;19923;-45
2022/08/10 04:46:34;;;;;;;;;;;19.90;48.80;;;;;;5119778;27;19934;-53
2022/08/10 04:49:00;;;;;;;;;;;19.80;48.60;;;;;;5148866;27;19974;-46
2022/08/10 04:51:26;;;;;;;;;;;20.20;51.30;;;;;;5143919;27;19935;-49
2022/08/10 04:53:52;;;;;;;;;;;21.20;50.40;;;;;;5150425;27;19979;-46
2022/08/10 04:56:18;;;;;;;;;;;21.80;48.30;;;;;;5145116;27;19962;-50
2022/08/10 04:58:43;;;;;;;;;;;20.80;49.20;;;;;;5145337;27;20032;-45
2022/08/10 05:01:09;;;;;;;;;;;20.30;49.20;;;;;;5150624;27;19923;-47
2022/08/10 05:03:35;;;;;;;;;;;19.90;49.00;;;;;;5144827;27;19927;-47
2022/08/10 05:06:01;;;;;;;;;;;19.90;48.60;;;;;;5145004;27;19938;-48
2022/08/10 05:08:27;;;;;;;;;;;19.80;49.70;;;;;;5149422;27;20229;-46
2022/08/10 05:10:52;;;;;;;;;;;20.60;51.20;;;;;;5143932;27;19927;-45
2022/08/10 05:13:18;;;;;;;;;;;21.70;49.00;;;;;;5128045;27;19924;-44
2022/08/10 05:15:44;;;;;;;;;;;21.00;49.30;;;;;;5144965;27;19970;-48
2022/08/10 05:18:10;;;;;;;;;;;20.50;49.10;;;;;;5144929;27;20295;-47
2022/08/10 05:20:36;;;;;;;;;;;20.10;49.00;;;;;;5149981;27;19923;-48
2022/08/10 05:23:02;;;;;;;;;;;19.90;48.70;;;;;;5144374;27;19934;-46
2022/08/10 05:25:28;;;;;;;;;;;19.80;48.40;;;;;;5144496;27;20030;-46
2022/08/10 05:27:54;;;;;;;;;;;20.10;51.00;;;;;;5148554;27;19923;-46
2022/08/10 05:30:20;;;;;;;;;;;21.00;50.50;;;;;;5143948;27;19929;-46
2022/08/10 05:32:46;;;;;;;;;;;21.80;48.30;;;;;;5150139;27;19923;-46
2022/08/10 05:35:12;;;;;;;;;;;20.70;49.40;;;;;;5144812;27;19931;-45
2022/08/10 05:37:38;;;;;;;;;;;20.30;49.40;;;;;;5144865;27;19923;-45
2022/08/10 05:40:04;;;;;;;;;;;20.00;49.20;;;;;;5149934;27;19923;-44
2022/08/10 05:42:30;;;;;;;;;;;19.90;48.70;;;;;;5125902;27;19928;-45
2022/08/10 05:44:55;;;;;;;;;;;20.00;49.60;;;;;;5143564;27;19927;-48
2022/08/10 05:47:21;;;;;;;;;;;20.80;51.00;;;;;;5147945;27;19923;-47
2022/08/10 05:49:47;;;;;;;;;;;21.80;48.80;;;;;;5143799;27;19922;-47
2022/08/10 05:52:13;;;;;;;;;;;21.00;49.00;;;;;;5149721;27;20019;-47
2022/08/10 05:54:39;;;;;;;;;;;20.40;49.10;;;;;;5144176;27;19927;-45
2022/08/10 05:57:05;;;;;;;;;;;20.00;49.10;;;;;;5143905;27;19930;-45
2022/08/10 05:59:32;;;;;;;;;;;19.90;48.70;;;;;;5149448;27;19927;-46
2022/08/10 06:01:59;;;;;;;;;;;19.70;48.70;;;;;;5143914;27;19927;-46
2022/08/10 06:04:25;;;;;;;;;;;19.90;50.20;;;;;;5142691;27;20135;-46
2022/08/10 06:06:52;;;;;;;;;;;20.80;50.90;;;;;;5130290;27;20405;-49
2022/08/10 06:09:17;;;;;;;;;;;21.80;48.70;;;;;;5125265;27;20339;-44
2022/08/10 06:11:44;;;;;;;;;;;21.00;48.90;;;;;;5120763;27;19934;-52
2022/08/10 06:16:55;;;;;;;;;;;20.20;48.60;;;;;;5143661;27;19927;-44
2022/08/10 06:19:20;;;;;;;;;;;20.10;48.40;;;;;;5148846;27;20380;-48
2022/08/10 06:21:46;;;;;;;;;;;19.90;48.20;;;;;;5143185;27;19935;-47
2022/08/10 06:24:12;;;;;;;;;;;20.30;50.90;;;;;;5142594;27;19923;-48
2022/08/10 06:26:38;;;;;;;;;;;21.30;49.70;;;;;;5124213;27;20018;-45
2022/08/10 06:29:08;;;;;;;;;;;21.70;48.10;;;;;;5143224;27;19923;-44
2022/08/10 06:31:38;;;;;;;;;;;20.70;49.10;;;;;;5118494;27;19923;-46
2022/08/10 06:34:04;;;;;;;;;;;20.30;49.00;;;;;;5130234;27;20274;-45
2022/08/10 06:36:30;;;;;;;;;;;20.30;48.30;;;;;;5143213;27;19923;-45
2022/08/10 06:38:56;;;;;;;;;;;20.00;48.40;;;;;;5124714;27;20382;-48
2022/08/10 06:41:22;;;;;;;;;;;20.00;47.80;;;;;;5147070;27;20075;-45
2022/08/10 06:43:50;;;;;;;;;;;20.20;50.30;;;;;;5124069;27;19931;-48
2022/08/10 06:46:16;;;;;;;;;;;21.10;50.10;;;;;;5148498;27;19971;-46
2022/08/10 06:48:45;;;;;;;;;;;21.80;48.00;;;;;;5143106;27;19927;-46
2022/08/10 06:51:16;;;;;;;;;;;20.90;49.00;;;;;;5143410;27;20404;-46
2022/08/10 06:53:46;;;;;;;;;;;20.50;48.80;;;;;;5148480;27;20389;-48
2022/08/10 06:56:14;;;;;;;;;;;20.10;48.80;;;;;;5124478;27;19923;-46
2022/08/10 06:58:45;;;;;;;;;;;19.90;48.70;;;;;;5141765;27;19923;-49
2022/08/10 07:01:12;;;;;;;;;;;20.00;49.50;;;;;;5147482;27;19923;-46
2022/08/10 07:03:39;;;;;;;;;;;20.90;50.50;;;;;;5124252;27;19933;-45
2022/08/10 07:06:05;;;;;;;;;;;21.80;48.30;;;;;;5142822;27;19931;-45
2022/08/10 07:08:32;;;;;;;;;;;21.00;48.80;;;;;;5120091;27;19967;-45
2022/08/10 07:10:58;;;;;;;;;;;20.30;49.30;;;;;;5124169;27;19923;-46
2022/08/10 07:13:24;;;;;;;;;;;20.30;48.60;;;;;;5129476;27;19923;-44
2022/08/10 07:15:49;;;;;;;;;;;20.20;48.60;;;;;;5142600;27;19946;-45
2022/08/10 07:18:16;;;;;;;;;;;19.80;48.70;;;;;;5110520;27;19927;-45
2022/08/10 07:20:41;;;;;;;;;;;19.90;48.20;;;;;;5147150;27;20286;-44
2022/08/10 07:23:11;;;;;;;;;;;20.10;49.80;;;;;;5123631;27;19923;-46
2022/08/10 07:25:37;;;;;;;;;;;21.10;50.10;;;;;;5142513;27;19957;-45
2022/08/10 07:28:03;;;;;;;;;;;22.00;48.00;;;;;;5147705;27;19923;-45
2022/08/10 07:30:30;;;;;;;;;;;20.90;49.10;;;;;;5123745;27;19966;-45
2022/08/10 07:32:56;;;;;;;;;;;20.50;49.10;;;;;;5146423;27;20018;-53
2022/08/10 07:35:21;;;;;;;;;;;20.30;48.60;;;;;;5142381;27;20011;-46
2022/08/10 07:37:48;;;;;;;;;;;20.20;48.40;;;;;;5122449;27;19923;-45
2022/08/10 07:40:14;;;;;;;;;;;19.80;48.80;;;;;;5128718;27;20023;-45
2022/08/10 07:42:40;;;;;;;;;;;20.10;49.70;;;;;;5116945;27;19923;-52
2022/08/10 07:45:06;;;;;;;;;;;20.90;50.50;;;;;;5123721;27;19965;-47
2022/08/10 07:47:33;;;;;;;;;;;21.80;48.40;;;;;;5147377;27;19962;-46
2022/08/10 07:50:01;;;;;;;;;;;20.90;49.10;;;;;;5123478;27;19924;-45
2022/08/10 07:52:26;;;;;;;;;;;20.60;48.80;;;;;;5123918;27;20067;-51
2022/08/10 07:54:52;;;;;;;;;;;20.30;48.60;;;;;;5145914;27;19929;-44
2022/08/10 07:57:20;;;;;;;;;;;20.10;48.50;;;;;;5122864;27;20169;-46
2022/08/10 07:59:47;;;;;;;;;;;20.00;48.30;;;;;;5118328;27;19934;-45
2022/08/10 08:02:17;;;;;;;;;;;20.00;49.20;;;;;;5141960;27;20294;-46
2022/08/10 08:04:43;;;;;;;;;;;20.80;50.50;;;;;;5141916;27;19946;-46
2022/08/10 08:07:09;;;;;;;;;;;21.80;48.50;;;;;;5147220;27;20439;-46
2022/08/10 08:09:34;;;;;;;;;;;21.20;48.70;;;;;;5140984;27;20448;-49
2022/08/10 08:12:00;;;;;;;;;;;20.70;48.70;;;;;;5140785;27;19954;-45
2022/08/10 08:14:26;;;;;;;;;;;20.20;49.10;;;;;;5146119;27;19960;-50
2022/08/10 08:16:52;;;;;;;;;;;20.20;48.50;;;;;;5122884;27;19930;-48
2022/08/10 08:19:18;;;;;;;;;;;20.00;48.30;;;;;;5122562;27;20027;-46
2022/08/10 08:21:44;;;;;;;;;;;19.90;48.50;;;;;;5123296;27;19978;-47
2022/08/10 08:24:10;;;;;;;;;;;20.40;50.60;;;;;;5141616;27;19927;-46
2022/08/10 08:26:35;;;;;;;;;;;21.40;49.80;;;;;;5128495;27;20415;-45
2022/08/10 08:29:01;;;;;;;;;;;21.80;48.10;;;;;;5141260;27;19923;-46
2022/08/10 08:31:27;;;;;;;;;;;20.90;48.70;;;;;;5140130;27;20253;-45
2022/08/10 08:33:53;;;;;;;;;;;20.60;48.70;;;;;;5146339;27;19923;-45
2022/08/10 08:36:18;;;;;;;;;;;20.30;48.70;;;;;;5141430;27;19923;-47
2022/08/10 08:38:45;;;;;;;;;;;20.20;48.60;;;;;;5118370;27;19940;-56
2022/08/10 08:41:29;;;;;;;;;;;20.00;48.40;;;;;;5143053;27;19933;-46
2022/08/10 08:44:10;;;;;;;;;;;19.90;48.20;;;;;;5141274;27;20287;-45
2022/08/10 08:46:45;;;;;;;;;;;20.30;50.90;;;;;;5142722;27;19923;-54
2022/08/10 08:49:14;;;;;;;;;;;21.50;49.50;;;;;;5145507;27;19929;-50
2022/08/10 08:51:59;;;;;;;;;;;21.60;48.20;;;;;;5140442;27;19927;-46
2022/08/10 08:54:45;;;;;;;;;;;20.80;49.10;;;;;;5141168;27;20025;-49
2022/08/10 08:57:14;;;;;;;;;;;20.60;48.60;;;;;;5146773;27;19930;-45
2022/08/10 08:59:49;;;;;;;;;;;20.30;48.30;;;;;;5141724;27;19923;-45
2022/08/10 09:02:16;;;;;;;;;;;20.10;48.50;;;;;;5141129;27;19931;-44
2022/08/10 09:04:50;;;;;;;;;;;20.10;48.10;;;;;;5146632;27;19982;-47
2022/08/10 09:07:34;;;;;;;;;;;20.30;50.00;;;;;;5121820;27;19927;-49
2022/08/10 09:10:11;;;;;;;;;;;21.30;49.90;;;;;;5139961;27;20213;-45
2022/08/10 09:12:57;;;;;;;;;;;21.60;48.20;;;;;;5115220;27;19930;-48
2022/08/10 09:15:35;;;;;;;;;;;20.70;49.00;;;;;;5129850;27;19926;-45
2022/08/10 09:18:03;;;;;;;;;;;20.40;48.60;;;;;;5122746;27;20398;-45
2022/08/10 09:20:33;;;;;;;;;;;20.20;48.70;;;;;;5147658;27;20009;-44
2022/08/10 09:23:19;;;;;;;;;;;20.00;48.30;;;;;;5144435;27;19945;-45
2022/08/10 09:25:47;;;;;;;;;;;19.90;48.00;;;;;;5111247;27;19922;-47
2022/08/10 09:28:15;;;;;;;;;;;20.80;50.20;;;;;;5149021;27;20021;-45
2022/08/10 09:30:44;;;;;;;;;;;21.80;48.10;;;;;;5144492;27;20425;-45
2022/08/10 09:33:10;;;;;;;;;;;21.30;47.80;;;;;;5144652;27;20422;-44
2022/08/10 09:35:47;;;;;;;;;;;20.70;48.20;;;;;;5131648;27;19927;-45
2022/08/10 09:38:33;;;;;;;;;;;20.50;47.90;;;;;;5144528;27;20019;-45
2022/08/10 09:41:05;;;;;;;;;;;20.30;47.40;;;;;;5126095;27;20193;-45
2022/08/10 09:43:51;;;;;;;;;;;20.00;47.90;;;;;;5149364;27;20018;-48
2022/08/10 09:46:20;;;;;;;;;;;19.80;48.00;;;;;;5143410;27;19930;-45
2022/08/10 09:48:49;;;;;;;;;;;19.90;48.70;;;;;;5143818;27;20626;-45
2022/08/10 09:51:29;;;;;;;;;;;20.90;49.40;;;;;;5149654;27;19927;-45
2022/08/10 09:53:59;;;;;;;;;;;21.90;47.10;;;;;;5125772;27;19931;-44
2022/08/10 09:56:35;;;;;;;;;;;21.10;47.80;;;;;;5125669;27;20221;-44
2022/08/10 09:59:14;;;;;;;;;;;20.50;47.90;;;;;;5149504;27;20025;-44
2022/08/10 10:01:42;;;;;;;;;;;20.30;47.90;;;;;;5143605;27;19923;-46
2022/08/10 10:04:13;;;;;;;;;;;20.30;47.40;;;;;;5142720;27;19934;-47
2022/08/10 10:06:44;;;;;;;;;;;20.10;47.40;;;;;;5148945;27;20302;-45
2022/08/10 10:09:20;;;;;;;;;;;20.00;48.50;;;;;;5114277;27;19923;-45
2022/08/10 10:12:05;;;;;;;;;;;21.10;48.40;;;;;;5145096;27;19945;-51
2022/08/10 10:14:34;;;;;;;;;;;21.90;46.20;;;;;;5131480;27;19927;-44
2022/08/10 10:17:01;;;;;;;;;;;20.90;47.30;;;;;;5143841;27;20401;-45
2022/08/10 10:19:47;;;;;;;;;;;20.60;47.30;;;;;;5146135;27;20066;-52
2022/08/10 10:22:31;;;;;;;;;;;20.30;47.40;;;;;;5147374;27;19931;-45
2022/08/10 10:25:01;;;;;;;;;;;20.10;47.40;;;;;;5142461;27;19923;-45
2022/08/10 10:27:39;;;;;;;;;;;20.10;46.90;;;;;;5124977;27;20205;-44
2022/08/10 10:30:11;;;;;;;;;;;19.90;47.00;;;;;;5130695;27;20292;-47
2022/08/10 10:32:40;;;;;;;;;;;20.20;48.00;;;;;;5124081;27;19952;-45
2022/08/10 10:35:24;;;;;;;;;;;21.20;47.60;;;;;;5143292;27;19922;-45
2022/08/10 10:37:50;;;;;;;;;;;21.90;45.70;;;;;;5148696;27;19930;-46
2022/08/10 10:40:16;;;;;;;;;;;20.90;46.80;;;;;;5123305;27;19929;-46
2022/08/10 10:42:49;;;;;;;;;;;20.60;47.20;;;;;;5117368;27;19970;-55
2022/08/10 10:45:17;;;;;;;;;;;20.30;47.40;;;;;;5129979;27;20451;-45
2022/08/10 10:48:01;;;;;;;;;;;20.30;46.70;;;;;;5143175;27;20123;-45
2022/08/10 10:50:38;;;;;;;;;;;20.20;46.80;;;;;;5126545;27;19926;-53
2022/08/10 10:53:33;;;;;;;;;;;20.00;47.20;;;;;;5124004;27;19982;-45
2022/08/10 10:56:15;;;;;;;;;;;19.90;47.20;;;;;;5129459;27;19923;-48
2022/08/10 10:58:41;;;;;;;;;;;21.00;47.90;;;;;;5141526;27;19934;-44
2022/08/10 11:01:31;;;;;;;;;;;21.90;45.70;;;;;;5147768;27;20366;-45
2022/08/10 11:04:05;;;;;;;;;;;20.80;47.40;;;;;;5124137;27;19937;-47
2022/08/10 11:06:36;;;;;;;;;;;20.50;47.20;;;;;;5142766;27;20353;-45
2022/08/10 11:09:04;;;;;;;;;;;20.30;46.90;;;;;;5148183;27;20297;-43
2022/08/10 11:11:31;;;;;;;;;;;20.20;47.00;;;;;;5124014;27;19923;-46
2022/08/10 11:14:16;;;;;;;;;;;20.00;47.00;;;;;;5116736;27;20098;-45
2022/08/10 11:16:47;;;;;;;;;;;20.70;48.20;;;;;;5146423;27;19923;-44
2022/08/10 11:19:27;;;;;;;;;;;21.90;45.60;;;;;;5141518;27;19931;-46
2022/08/10 11:21:55;;;;;;;;;;;21.10;46.60;;;;;;5120113;27;19946;-48
2022/08/10 11:24:40;;;;;;;;;;;20.70;46.90;;;;;;5148014;27;20438;-46
2022/08/10 11:27:24;;;;;;;;;;;20.50;46.80;;;;;;5142557;27;19923;-44
2022/08/10 11:29:55;;;;;;;;;;;20.20;46.90;;;;;;5142130;27;19923;-45
2022/08/10 11:32:30;;;;;;;;;;;20.10;46.70;;;;;;5147678;27;20313;-44
2022/08/10 11:34:58;;;;;;;;;;;19.90;46.80;;;;;;5140717;27;20158;-45
2022/08/10 11:37:30;;;;;;;;;;;20.10;46.30;;;;;;5117127;27;20010;-45
2022/08/10 11:40:22;;;;;;;;;;;20.30;48.00;;;;;;5147383;27;19923;-47
2022/08/10 11:42:50;;;;;;;;;;;21.50;46.60;;;;;;5138541;27;19931;-47
2022/08/10 11:45:16;;;;;;;;;;;21.60;45.50;;;;;;5141341;27;20356;-47
2022/08/10 11:48:14;;;;;;;;;;;20.80;46.60;;;;;;5147415;27;20033;-45
2022/08/10 11:50:47;;;;;;;;;;;20.60;46.90;;;;;;5106722;27;19923;-46
2022/08/10 11:53:16;;;;;;;;;;;20.30;47.00;;;;;;5140687;27;19930;-44
2022/08/10 11:55:43;;;;;;;;;;;20.30;46.40;;;;;;5146411;27;20000;-46
2022/08/10 12:01:00;;;;;;;;;;;20.00;46.50;;;;;;5122198;27;19923;-48
2022/08/10 12:03:26;;;;;;;;;;;20.50;47.80;;;;;;5147556;27;20382;-46
2022/08/10 12:05:53;;;;;;;;;;;21.60;46.00;;;;;;5123452;27;19934;-47
2022/08/10 12:08:19;;;;;;;;;;;21.50;45.50;;;;;;5123145;27;19966;-45
2022/08/10 12:10:45;;;;;;;;;;;20.80;46.50;;;;;;5146303;27;20385;-46
2022/08/10 12:13:14;;;;;;;;;;;20.50;46.70;;;;;;5140603;27;19927;-45
2022/08/10 12:15:42;;;;;;;;;;;20.30;46.70;;;;;;5095685;27;20018;-50
2022/08/10 12:18:16;;;;;;;;;;;20.10;47.00;;;;;;5147053;27;20978;-45
2022/08/10 12:20:42;;;;;;;;;;;20.00;46.80;;;;;;5123431;27;19975;-45
2022/08/10 12:23:16;;;;;;;;;;;20.10;46.70;;;;;;5128371;27;19962;-46
2022/08/10 12:25:43;;;;;;;;;;;20.20;47.30;;;;;;5143360;27;19927;-46
2022/08/10 12:28:23;;;;;;;;;;;21.00;47.20;;;;;;5123021;27;20014;-45
2022/08/10 12:30:50;;;;;;;;;;;22.00;44.90;;;;;;5145619;27;20029;-46
2022/08/10 12:33:18;;;;;;;;;;;21.10;46.30;;;;;;5114982;27;19927;-45
2022/08/10 12:35:51;;;;;;;;;;;20.70;46.70;;;;;;5141193;27;20275;-45
2022/08/10 12:38:23;;;;;;;;;;;20.30;47.10;;;;;;5128496;27;19976;-45
2022/08/10 12:40:52;;;;;;;;;;;20.30;46.80;;;;;;5141365;27;19930;-44
2022/08/10 12:43:20;;;;;;;;;;;20.20;46.80;;;;;;5141448;27;19927;-44
2022/08/10 12:46:04;;;;;;;;;;;20.10;46.70;;;;;;5146841;27;19929;-44
2022/08/10 12:48:33;;;;;;;;;;;19.80;47.10;;;;;;5139948;27;19934;-48
2022/08/10 12:50:59;;;;;;;;;;;20.50;47.80;;;;;;5122178;27;19929;-46
2022/08/10 12:53:35;;;;;;;;;;;21.60;46.00;;;;;;5123675;27;19975;-46
2022/08/10 12:56:01;;;;;;;;;;;21.50;45.40;;;;;;5143941;27;19970;-45
2022/08/10 12:58:27;;;;;;;;;;;20.80;46.60;;;;;;5145401;27;19923;-48
2022/08/10 13:00:52;;;;;;;;;;;20.50;46.80;;;;;;5132071;27;20298;-44
2022/08/10 13:03:21;;;;;;;;;;;20.40;46.70;;;;;;5145115;27;19923;-44
2022/08/10 13:05:47;;;;;;;;;;;20.30;46.70;;;;;;5150060;27;19929;-48
2022/08/10 13:11:00;;;;;;;;;;;19.90;46.80;;;;;;5119802;27;19930;-46
2022/08/10 13:13:29;;;;;;;;;;;20.80;47.70;;;;;;5131704;27;19927;-45
2022/08/10 13:15:56;;;;;;;;;;;21.80;45.50;;;;;;5126605;27;20064;-46
2022/08/10 13:18:23;;;;;;;;;;;21.30;45.80;;;;;;5144660;27;20385;-47
2022/08/10 13:20:50;;;;;;;;;;;20.50;47.20;;;;;;5131714;27;19923;-45
2022/08/10 13:23:18;;;;;;;;;;;20.40;46.90;;;;;;5144707;27;19949;-44
2022/08/10 13:25:45;;;;;;;;;;;20.30;46.70;;;;;;5143166;27;19930;-49
2022/08/10 13:28:14;;;;;;;;;;;20.30;46.40;;;;;;5130905;27;21297;-46
2022/08/10 13:30:39;;;;;;;;;;;20.20;46.30;;;;;;5125701;27;19931;-44
2022/08/10 13:33:06;;;;;;;;;;;20.00;46.60;;;;;;5144971;27;19934;-51
2022/08/10 13:35:32;;;;;;;;;;;20.10;47.50;;;;;;5150146;27;19927;-47
2022/08/10 13:38:00;;;;;;;;;;;21.10;47.00;;;;;;5144371;27;20000;-46
2022/08/10 13:40:26;;;;;;;;;;;22.00;44.90;;;;;;5131694;27;19927;-45
2022/08/10 13:42:52;;;;;;;;;;;21.20;45.90;;;;;;5143244;27;20401;-51
2022/08/10 13:45:19;;;;;;;;;;;20.70;46.50;;;;;;5116295;27;19923;-44
2022/08/10 13:47:45;;;;;;;;;;;20.40;46.40;;;;;;5149203;27;19975;-46
2022/08/10 13:50:12;;;;;;;;;;;20.20;46.70;;;;;;5125666;27;19923;-44
2022/08/10 13:52:39;;;;;;;;;;;20.20;46.50;;;;;;5144357;27;19924;-44
2022/08/10 13:55:09;;;;;;;;;;;20.10;46.20;;;;;;5149618;27;19923;-43
2022/08/10 13:57:35;;;;;;;;;;;20.10;46.00;;;;;;5144024;27;20205;-46
2022/08/10 14:00:04;;;;;;;;;;;20.80;47.10;;;;;;5148562;27;20123;-54
2022/08/10 14:02:33;;;;;;;;;;;21.80;44.90;;;;;;5144954;27;19981;-46
2022/08/10 14:04:59;;;;;;;;;;;21.50;45.00;;;;;;5143378;27;19927;-45
2022/08/10 14:07:25;;;;;;;;;;;20.80;46.10;;;;;;5148107;27;20004;-45
2022/08/10 14:09:51;;;;;;;;;;;20.60;46.20;;;;;;5144117;27;19939;-44
2022/08/10 14:12:17;;;;;;;;;;;20.30;46.40;;;;;;5143786;27;19927;-45
2022/08/10 14:14:42;;;;;;;;;;;20.30;46.50;;;;;;5149103;27;19972;-44
2022/08/10 14:17:08;;;;;;;;;;;20.20;45.90;;;;;;5143791;27;19927;-44
2022/08/10 14:19:35;;;;;;;;;;;20.00;46.50;;;;;;5142861;27;20327;-49
2022/08/10 14:22:01;;;;;;;;;;;20.00;46.10;;;;;;5129685;27;19931;-48
2022/08/10 14:24:27;;;;;;;;;;;20.40;47.40;;;;;;5143096;27;19950;-44
2022/08/10 14:27:06;;;;;;;;;;;21.60;45.50;;;;;;5149126;27;20305;-45
2022/08/10 14:29:32;;;;;;;;;;;21.80;44.60;;;;;;5144456;27;19937;-44
2022/08/10 14:31:58;;;;;;;;;;;20.80;46.00;;;;;;5112718;27;20012;-44
2022/08/10 14:34:25;;;;;;;;;;;20.50;46.40;;;;;;5130380;27;19930;-45
2022/08/10 14:36:58;;;;;;;;;;;20.50;45.90;;;;;;5124695;27;19930;-45